Arlington, South Dakota
Current Conditions -  °F | °C
As of 12:55 AM on Saturday 01 Nov 2014 (Local Time) from KMDS Reporting Station
Clear Clear  
Wind Chill: 18°   Ceiling: Unl
Heat Index: 28°   Visibility: 10mi
Dew Point: 18°   Wind: 12mph
Humidity: 64%   Direction: 160°SSE
Pressure: 30.36"   Gusts: NA
Location:  44.36°N, 97.13°W
Report Text: KMDS 010555Z AUTO 16010KT 10SM CLR M02/M08 A3036 RMK AO2
Loading
Personal Weather Stations






























Interactive Weather Map
Tropical Storm Tracking
New forecast layout! Learn more

10-Day Weather Forecast

Advertisements
Track Severe Weather on mobile